sensor_id;sensor_type;location;lat;lon;timestamp;temperature;humidity
65989;HTU21D;53592;51.402;6.054;2023-05-29T00:01:38;15.98;66.51
65989;HTU21D;53592;51.402;6.054;2023-05-29T00:04:05;15.92;66.85
65989;HTU21D;53592;51.402;6.054;2023-05-29T00:06:30;15.89;67.04
65989;HTU21D;53592;51.402;6.054;2023-05-29T00:08:56;15.83;67.36
65989;HTU21D;53592;51.402;6.054;2023-05-29T00:11:21;15.82;67.52
65989;HTU21D;53592;51.402;6.054;2023-05-29T00:13:48;15.82;67.53
65989;HTU21D;53592;51.402;6.054;2023-05-29T00:16:13;15.86;67.43
65989;HTU21D;53592;51.402;6.054;2023-05-29T00:18:39;15.81;67.55
65989;HTU21D;53592;51.402;6.054;2023-05-29T00:21:14;15.81;67.49
65989;HTU21D;53592;51.402;6.054;2023-05-29T00:23:40;15.71;67.82
65989;HTU21D;53592;51.402;6.054;2023-05-29T00:26:05;15.67;67.78
65989;HTU21D;53592;51.402;6.054;2023-05-29T00:28:31;15.58;68.20
65989;HTU21D;53592;51.402;6.054;2023-05-29T00:30:56;15.52;68.46
65989;HTU21D;53592;51.402;6.054;2023-05-29T00:33:22;15.45;68.81
65989;HTU21D;53592;51.402;6.054;2023-05-29T00:35:47;15.44;68.94
65989;HTU21D;53592;51.402;6.054;2023-05-29T00:38:13;15.41;69.14
65989;HTU21D;53592;51.402;6.054;2023-05-29T00:40:40;15.41;69.16
65989;HTU21D;53592;51.402;6.054;2023-05-29T00:43:05;15.41;69.10
65989;HTU21D;53592;51.402;6.054;2023-05-29T00:45:31;15.40;69.07
65989;HTU21D;53592;51.402;6.054;2023-05-29T00:47:58;15.40;69.27
65989;HTU21D;53592;51.402;6.054;2023-05-29T00:50:23;15.43;69.20
65989;HTU21D;53592;51.402;6.054;2023-05-29T00:52:50;15.43;69.16
65989;HTU21D;53592;51.402;6.054;2023-05-29T00:55:16;15.44;69.03
65989;HTU21D;53592;51.402;6.054;2023-05-29T00:57:42;15.36;68.91
65989;HTU21D;53592;51.402;6.054;2023-05-29T01:00:08;15.27;69.12
65989;HTU21D;53592;51.402;6.054;2023-05-29T01:02:36;15.18;69.21
65989;HTU21D;53592;51.402;6.054;2023-05-29T01:05:02;15.06;69.37
65989;HTU21D;53592;51.402;6.054;2023-05-29T01:07:27;14.98;69.33
65989;HTU21D;53592;51.402;6.054;2023-05-29T01:09:53;14.86;69.49
65989;HTU21D;53592;51.402;6.054;2023-05-29T01:12:49;14.79;69.50
65989;HTU21D;53592;51.402;6.054;2023-05-29T01:15:45;14.67;69.58
65989;HTU21D;53592;51.402;6.054;2023-05-29T01:21:04;14.54;69.81
65989;HTU21D;53592;51.402;6.054;2023-05-29T01:27:01;14.43;69.94
65989;HTU21D;53592;51.402;6.054;2023-05-29T01:29:30;14.47;69.57
65989;HTU21D;53592;51.402;6.054;2023-05-29T01:31:58;14.40;69.42
65989;HTU21D;53592;51.402;6.054;2023-05-29T01:34:24;14.28;69.29
65989;HTU21D;53592;51.402;6.054;2023-05-29T01:36:50;14.13;69.76
65989;HTU21D;53592;51.402;6.054;2023-05-29T01:39:16;14.10;69.65
65989;HTU21D;53592;51.402;6.054;2023-05-29T01:41:46;14.07;69.52
65989;HTU21D;53592;51.402;6.054;2023-05-29T01:44:13;14.01;69.29
65989;HTU21D;53592;51.402;6.054;2023-05-29T01:46:40;13.95;69.28
65989;HTU21D;53592;51.402;6.054;2023-05-29T01:49:08;13.98;68.98
65989;HTU21D;53592;51.402;6.054;2023-05-29T01:51:34;13.94;68.65
65989;HTU21D;53592;51.402;6.054;2023-05-29T01:54:01;13.86;68.87
65989;HTU21D;53592;51.402;6.054;2023-05-29T01:56:27;13.89;68.66
65989;HTU21D;53592;51.402;6.054;2023-05-29T01:58:58;13.80;68.44
65989;HTU21D;53592;51.402;6.054;2023-05-29T02:01:24;13.73;68.63
65989;HTU21D;53592;51.402;6.054;2023-05-29T02:03:50;13.64;68.58
65989;HTU21D;53592;51.402;6.054;2023-05-29T02:06:20;13.59;68.80
65989;HTU21D;53592;51.402;6.054;2023-05-29T02:08:46;13.51;68.91
65989;HTU21D;53592;51.402;6.054;2023-05-29T02:11:12;13.50;69.11
65989;HTU21D;53592;51.402;6.054;2023-05-29T02:13:37;13.51;68.81
65989;HTU21D;53592;51.402;6.054;2023-05-29T02:16:03;13.50;68.66
65989;HTU21D;53592;51.402;6.054;2023-05-29T02:18:28;13.47;68.69
65989;HTU21D;53592;51.402;6.054;2023-05-29T02:20:54;13.46;68.67
65989;HTU21D;53592;51.402;6.054;2023-05-29T02:23:20;13.48;68.42
65989;HTU21D;53592;51.402;6.054;2023-05-29T02:25:46;13.43;68.35
65989;HTU21D;53592;51.402;6.054;2023-05-29T02:28:12;13.30;68.53
65989;HTU21D;53592;51.402;6.054;2023-05-29T02:30:37;13.23;68.85
65989;HTU21D;53592;51.402;6.054;2023-05-29T02:33:03;13.23;68.97
65989;HTU21D;53592;51.402;6.054;2023-05-29T02:35:28;13.27;68.77
65989;HTU21D;53592;51.402;6.054;2023-05-29T02:37:54;13.25;68.84
65989;HTU21D;53592;51.402;6.054;2023-05-29T02:40:20;13.22;68.75
65989;HTU21D;53592;51.402;6.054;2023-05-29T02:42:46;13.16;68.92
65989;HTU21D;53592;51.402;6.054;2023-05-29T02:45:12;13.10;69.00
65989;HTU21D;53592;51.402;6.054;2023-05-29T02:47:38;13.11;68.99
65989;HTU21D;53592;51.402;6.054;2023-05-29T02:50:04;13.14;68.91
65989;HTU21D;53592;51.402;6.054;2023-05-29T02:52:31;13.15;68.73
65989;HTU21D;53592;51.402;6.054;2023-05-29T02:54:56;13.12;68.91
65989;HTU21D;53592;51.402;6.054;2023-05-29T02:57:24;13.09;68.91
65989;HTU21D;53592;51.402;6.054;2023-05-29T02:59:50;13.09;68.96
65989;HTU21D;53592;51.402;6.054;2023-05-29T03:02:17;13.11;68.78
65989;HTU21D;53592;51.402;6.054;2023-05-29T03:04:43;13.10;68.80
65989;HTU21D;53592;51.402;6.054;2023-05-29T03:07:09;13.12;68.76
65989;HTU21D;53592;51.402;6.054;2023-05-29T03:09:35;13.17;68.22
65989;HTU21D;53592;51.402;6.054;2023-05-29T03:12:00;13.11;68.26
65989;HTU21D;53592;51.402;6.054;2023-05-29T03:14:27;13.00;68.64
65989;HTU21D;53592;51.402;6.054;2023-05-29T03:16:53;12.95;68.72
65989;HTU21D;53592;51.402;6.054;2023-05-29T03:19:19;12.94;68.75
65989;HTU21D;53592;51.402;6.054;2023-05-29T03:21:44;12.92;68.81
65989;HTU21D;53592;51.402;6.054;2023-05-29T03:24:10;12.91;69.02
65989;HTU21D;53592;51.402;6.054;2023-05-29T03:26:36;12.86;68.98
65989;HTU21D;53592;51.402;6.054;2023-05-29T03:29:02;12.84;69.23
65989;HTU21D;53592;51.402;6.054;2023-05-29T03:31:28;12.86;69.17
65989;HTU21D;53592;51.402;6.054;2023-05-29T03:33:53;12.86;69.17
65989;HTU21D;53592;51.402;6.054;2023-05-29T03:36:19;12.84;69.29
65989;HTU21D;53592;51.402;6.054;2023-05-29T03:38:44;12.86;69.14
65989;HTU21D;53592;51.402;6.054;2023-05-29T03:41:10;12.80;69.23
65989;HTU21D;53592;51.402;6.054;2023-05-29T03:43:36;12.73;69.67
65989;HTU21D;53592;51.402;6.054;2023-05-29T03:46:02;12.71;69.65
65989;HTU21D;53592;51.402;6.054;2023-05-29T03:48:27;12.67;69.87
65989;HTU21D;53592;51.402;6.054;2023-05-29T03:50:53;12.66;70.07
65989;HTU21D;53592;51.402;6.054;2023-05-29T03:53:18;12.69;70.20
65989;HTU21D;53592;51.402;6.054;2023-05-29T03:55:44;12.67;70.29
65989;HTU21D;53592;51.402;6.054;2023-05-29T03:58:09;12.64;70.26
65989;HTU21D;53592;51.402;6.054;2023-05-29T04:00:38;12.62;70.29
65989;HTU21D;53592;51.402;6.054;2023-05-29T04:03:04;12.56;70.69
65989;HTU21D;53592;51.402;6.054;2023-05-29T04:05:29;12.52;70.68
65989;HTU21D;53592;51.402;6.054;2023-05-29T04:07:56;12.47;71.00
65989;HTU21D;53592;51.402;6.054;2023-05-29T04:10:21;12.46;71.23
65989;HTU21D;53592;51.402;6.054;2023-05-29T04:12:47;12.45;71.32
65989;HTU21D;53592;51.402;6.054;2023-05-29T04:15:12;12.41;71.43
65989;HTU21D;53592;51.402;6.054;2023-05-29T04:17:38;12.40;71.62
65989;HTU21D;53592;51.402;6.054;2023-05-29T04:20:04;12.48;71.35
65989;HTU21D;53592;51.402;6.054;2023-05-29T04:22:37;12.46;71.44
65989;HTU21D;53592;51.402;6.054;2023-05-29T04:25:04;12.47;71.60
65989;HTU21D;53592;51.402;6.054;2023-05-29T04:27:33;12.47;71.83
65989;HTU21D;53592;51.402;6.054;2023-05-29T04:30:06;12.52;71.48
65989;HTU21D;53592;51.402;6.054;2023-05-29T04:32:32;12.52;71.42
65989;HTU21D;53592;51.402;6.054;2023-05-29T04:35:01;12.48;71.74
65989;HTU21D;53592;51.402;6.054;2023-05-29T04:37:32;12.61;71.61
65989;HTU21D;53592;51.402;6.054;2023-05-29T04:40:06;12.63;71.32
65989;HTU21D;53592;51.402;6.054;2023-05-29T04:42:38;12.64;71.38
65989;HTU21D;53592;51.402;6.054;2023-05-29T04:45:06;12.65;71.46
65989;HTU21D;53592;51.402;6.054;2023-05-29T04:47:32;12.71;71.45
65989;HTU21D;53592;51.402;6.054;2023-05-29T04:50:02;12.78;71.38
65989;HTU21D;53592;51.402;6.054;2023-05-29T04:52:27;12.85;71.04
65989;HTU21D;53592;51.402;6.054;2023-05-29T04:54:56;12.89;70.90
65989;HTU21D;53592;51.402;6.054;2023-05-29T04:57:22;12.99;70.66
65989;HTU21D;53592;51.402;6.054;2023-05-29T04:59:48;13.12;70.16
65989;HTU21D;53592;51.402;6.054;2023-05-29T05:02:13;13.17;69.80
65989;HTU21D;53592;51.402;6.054;2023-05-29T05:04:39;13.26;69.84
65989;HTU21D;53592;51.402;6.054;2023-05-29T05:07:05;13.44;69.13
65989;HTU21D;53592;51.402;6.054;2023-05-29T05:09:31;13.53;68.28
65989;HTU21D;53592;51.402;6.054;2023-05-29T05:11:56;13.54;68.24
65989;HTU21D;53592;51.402;6.054;2023-05-29T05:14:22;13.67;68.04
65989;HTU21D;53592;51.402;6.054;2023-05-29T05:16:47;13.79;67.41
65989;HTU21D;53592;51.402;6.054;2023-05-29T05:19:13;13.82;67.24
65989;HTU21D;53592;51.402;6.054;2023-05-29T05:21:38;13.93;67.04
65989;HTU21D;53592;51.402;6.054;2023-05-29T05:24:04;14.10;66.03
65989;HTU21D;53592;51.402;6.054;2023-05-29T05:26:30;14.11;66.04
65989;HTU21D;53592;51.402;6.054;2023-05-29T05:28:55;14.22;65.29
65989;HTU21D;53592;51.402;6.054;2023-05-29T05:31:21;14.23;65.86
65989;HTU21D;53592;51.402;6.054;2023-05-29T05:33:47;14.38;65.65
65989;HTU21D;53592;51.402;6.054;2023-05-29T05:36:12;14.55;64.94
65989;HTU21D;53592;51.402;6.054;2023-05-29T05:38:38;14.67;63.89
65989;HTU21D;53592;51.402;6.054;2023-05-29T05:41:03;14.66;63.73
65989;HTU21D;53592;51.402;6.054;2023-05-29T05:43:29;14.73;64.18
65989;HTU21D;53592;51.402;6.054;2023-05-29T05:45:55;14.93;63.44
65989;HTU21D;53592;51.402;6.054;2023-05-29T05:48:20;15.08;62.92
65989;HTU21D;53592;51.402;6.054;2023-05-29T05:50:46;15.21;62.22
65989;HTU21D;53592;51.402;6.054;2023-05-29T05:53:11;15.30;61.78
65989;HTU21D;53592;51.402;6.054;2023-05-29T05:55:37;15.43;61.92
65989;HTU21D;53592;51.402;6.054;2023-05-29T05:58:02;15.68;60.73
65989;HTU21D;53592;51.402;6.054;2023-05-29T06:00:27;15.69;60.50
65989;HTU21D;53592;51.402;6.054;2023-05-29T06:02:53;15.78;60.44
65989;HTU21D;53592;51.402;6.054;2023-05-29T06:05:18;15.89;59.90
65989;HTU21D;53592;51.402;6.054;2023-05-29T06:07:44;15.99;59.59
65989;HTU21D;53592;51.402;6.054;2023-05-29T06:10:09;16.08;59.42
65989;HTU21D;53592;51.402;6.054;2023-05-29T06:12:35;16.18;58.87
65989;HTU21D;53592;51.402;6.054;2023-05-29T06:15:01;16.22;58.85
65989;HTU21D;53592;51.402;6.054;2023-05-29T06:17:29;16.34;59.00
65989;HTU21D;53592;51.402;6.054;2023-05-29T06:19:55;16.51;57.99
65989;HTU21D;53592;51.402;6.054;2023-05-29T06:22:20;16.62;57.19
65989;HTU21D;53592;51.402;6.054;2023-05-29T06:24:46;16.48;57.08
65989;HTU21D;53592;51.402;6.054;2023-05-29T06:27:11;16.40;56.77
65989;HTU21D;53592;51.402;6.054;2023-05-29T06:29:37;16.43;57.26
65989;HTU21D;53592;51.402;6.054;2023-05-29T06:32:02;16.44;57.01
65989;HTU21D;53592;51.402;6.054;2023-05-29T06:34:28;16.46;57.77
65989;HTU21D;53592;51.402;6.054;2023-05-29T06:36:53;16.74;57.56
65989;HTU21D;53592;51.402;6.054;2023-05-29T06:39:19;16.89;56.39
65989;HTU21D;53592;51.402;6.054;2023-05-29T06:41:45;16.96;56.28
65989;HTU21D;53592;51.402;6.054;2023-05-29T06:44:11;17.22;56.78
65989;HTU21D;53592;51.402;6.054;2023-05-29T06:46:36;17.43;55.82
65989;HTU21D;53592;51.402;6.054;2023-05-29T06:49:02;17.64;55.04
65989;HTU21D;53592;51.402;6.054;2023-05-29T06:51:27;17.62;54.28
65989;HTU21D;53592;51.402;6.054;2023-05-29T06:53:53;17.65;54.68
65989;HTU21D;53592;51.402;6.054;2023-05-29T06:56:18;17.77;54.01
65989;HTU21D;53592;51.402;6.054;2023-05-29T06:58:43;17.80;54.25
65989;HTU21D;53592;51.402;6.054;2023-05-29T07:01:11;17.97;53.59
65989;HTU21D;53592;51.402;6.054;2023-05-29T07:03:36;18.10;53.90
65989;HTU21D;53592;51.402;6.054;2023-05-29T07:06:02;18.37;52.95
65989;HTU21D;53592;51.402;6.054;2023-05-29T07:08:28;18.81;54.13
65989;HTU21D;53592;51.402;6.054;2023-05-29T07:10:53;19.91;53.19
65989;HTU21D;53592;51.402;6.054;2023-05-29T07:13:19;20.89;50.49
65989;HTU21D;53592;51.402;6.054;2023-05-29T07:15:45;21.49;47.36
65989;HTU21D;53592;51.402;6.054;2023-05-29T07:18:11;21.81;47.65
65989;HTU21D;53592;51.402;6.054;2023-05-29T07:20:36;22.23;45.79
65989;HTU21D;53592;51.402;6.054;2023-05-29T07:23:02;22.40;44.49
65989;HTU21D;53592;51.402;6.054;2023-05-29T07:25:29;22.54;44.03
65989;HTU21D;53592;51.402;6.054;2023-05-29T07:27:55;22.70;43.64
65989;HTU21D;53592;51.402;6.054;2023-05-29T07:30:20;22.90;43.98
65989;HTU21D;53592;51.402;6.054;2023-05-29T07:32:46;23.18;43.56
65989;HTU21D;53592;51.402;6.054;2023-05-29T07:35:11;23.21;41.36
65989;HTU21D;53592;51.402;6.054;2023-05-29T07:37:37;23.00;42.75
65989;HTU21D;53592;51.402;6.054;2023-05-29T07:40:03;23.21;43.48
65989;HTU21D;53592;51.402;6.054;2023-05-29T07:42:32;23.28;40.94
65989;HTU21D;53592;51.402;6.054;2023-05-29T07:44:58;23.22;42.58
65989;HTU21D;53592;51.402;6.054;2023-05-29T07:47:24;23.35;41.54
65989;HTU21D;53592;51.402;6.054;2023-05-29T07:49:50;23.40;42.26
65989;HTU21D;53592;51.402;6.054;2023-05-29T07:52:15;23.67;41.63
65989;HTU21D;53592;51.402;6.054;2023-05-29T07:54:41;23.95;42.01
65989;HTU21D;53592;51.402;6.054;2023-05-29T07:57:07;24.27;40.93
65989;HTU21D;53592;51.402;6.054;2023-05-29T07:59:41;24.58;39.16
65989;HTU21D;53592;51.402;6.054;2023-05-29T08:02:07;24.28;37.58
65989;HTU21D;53592;51.402;6.054;2023-05-29T08:04:33;23.69;38.02
65989;HTU21D;53592;51.402;6.054;2023-05-29T08:07:02;22.86;39.84
65989;HTU21D;53592;51.402;6.054;2023-05-29T08:09:31;22.27;40.61
65989;HTU21D;53592;51.402;6.054;2023-05-29T08:11:57;21.99;41.54
65989;HTU21D;53592;51.402;6.054;2023-05-29T08:14:22;21.83;41.84
65989;HTU21D;53592;51.402;6.054;2023-05-29T08:16:48;21.87;42.32
65989;HTU21D;53592;51.402;6.054;2023-05-29T08:19:13;22.04;43.72
65989;HTU21D;53592;51.402;6.054;2023-05-29T08:21:39;22.13;42.11
65989;HTU21D;53592;51.402;6.054;2023-05-29T08:24:05;22.02;42.03
65989;HTU21D;53592;51.402;6.054;2023-05-29T08:26:31;21.87;42.84
65989;HTU21D;53592;51.402;6.054;2023-05-29T08:28:56;22.03;42.74
65989;HTU21D;53592;51.402;6.054;2023-05-29T08:31:22;22.08;42.22
65989;HTU21D;53592;51.402;6.054;2023-05-29T08:33:51;22.20;42.66
65989;HTU21D;53592;51.402;6.054;2023-05-29T08:36:16;22.37;41.93
65989;HTU21D;53592;51.402;6.054;2023-05-29T08:38:43;22.38;41.41
65989;HTU21D;53592;51.402;6.054;2023-05-29T08:41:20;22.51;41.27
65989;HTU21D;53592;51.402;6.054;2023-05-29T08:43:48;22.47;41.90
65989;HTU21D;53592;51.402;6.054;2023-05-29T08:46:17;22.52;41.71
65989;HTU21D;53592;51.402;6.054;2023-05-29T08:48:48;22.66;42.39
65989;HTU21D;53592;51.402;6.054;2023-05-29T08:51:20;22.87;42.52
65989;HTU21D;53592;51.402;6.054;2023-05-29T08:53:49;23.88;41.39
65989;HTU21D;53592;51.402;6.054;2023-05-29T08:56:16;24.73;39.22
65989;HTU21D;53592;51.402;6.054;2023-05-29T08:58:42;25.45;38.17
65989;HTU21D;53592;51.402;6.054;2023-05-29T09:01:09;25.88;37.64
65989;HTU21D;53592;51.402;6.054;2023-05-29T09:03:35;26.02;35.46
65989;HTU21D;53592;51.402;6.054;2023-05-29T09:06:03;25.88;35.15
65989;HTU21D;53592;51.402;6.054;2023-05-29T09:08:29;25.91;36.50
65989;HTU21D;53592;51.402;6.054;2023-05-29T09:10:55;26.22;35.47
65989;HTU21D;53592;51.402;6.054;2023-05-29T09:13:22;26.48;35.05
65989;HTU21D;53592;51.402;6.054;2023-05-29T09:15:47;26.55;34.68
65989;HTU21D;53592;51.402;6.054;2023-05-29T09:18:13;26.78;34.18
65989;HTU21D;53592;51.402;6.054;2023-05-29T09:20:41;26.69;33.54
65989;HTU21D;53592;51.402;6.054;2023-05-29T09:23:08;26.40;33.44
65989;HTU21D;53592;51.402;6.054;2023-05-29T09:25:39;26.35;34.74
65989;HTU21D;53592;51.402;6.054;2023-05-29T09:28:08;26.43;34.18
65989;HTU21D;53592;51.402;6.054;2023-05-29T09:30:37;26.46;33.70
65989;HTU21D;53592;51.402;6.054;2023-05-29T09:33:05;26.32;34.20
65989;HTU21D;53592;51.402;6.054;2023-05-29T09:35:34;26.37;35.28
65989;HTU21D;53592;51.402;6.054;2023-05-29T09:38:01;26.50;34.92
65989;HTU21D;53592;51.402;6.054;2023-05-29T09:40:29;26.62;34.85
65989;HTU21D;53592;51.402;6.054;2023-05-29T09:42:55;26.54;34.99
65989;HTU21D;53592;51.402;6.054;2023-05-29T09:45:21;26.67;34.06
65989;HTU21D;53592;51.402;6.054;2023-05-29T09:47:50;26.94;33.80
65989;HTU21D;53592;51.402;6.054;2023-05-29T09:50:19;27.00;33.72
65989;HTU21D;53592;51.402;6.054;2023-05-29T09:52:48;27.14;33.51
65989;HTU21D;53592;51.402;6.054;2023-05-29T09:55:18;27.34;34.74
65989;HTU21D;53592;51.402;6.054;2023-05-29T09:57:47;27.47;32.73
65989;HTU21D;53592;51.402;6.054;2023-05-29T10:00:17;27.13;34.13
65989;HTU21D;53592;51.402;6.054;2023-05-29T10:02:42;27.24;32.93
65989;HTU21D;53592;51.402;6.054;2023-05-29T10:05:09;27.21;33.88
65989;HTU21D;53592;51.402;6.054;2023-05-29T10:07:37;27.34;33.50
65989;HTU21D;53592;51.402;6.054;2023-05-29T10:10:05;27.32;33.51
65989;HTU21D;53592;51.402;6.054;2023-05-29T10:12:36;27.54;32.60
65989;HTU21D;53592;51.402;6.054;2023-05-29T10:15:06;27.72;31.78
65989;HTU21D;53592;51.402;6.054;2023-05-29T10:17:34;27.72;31.51
65989;HTU21D;53592;51.402;6.054;2023-05-29T10:20:04;27.78;31.96
65989;HTU21D;53592;51.402;6.054;2023-05-29T10:22:32;27.88;31.47
65989;HTU21D;53592;51.402;6.054;2023-05-29T10:24:59;27.83;31.64
65989;HTU21D;53592;51.402;6.054;2023-05-29T10:27:26;27.70;32.29
65989;HTU21D;53592;51.402;6.054;2023-05-29T10:38:00;27.16;31.11
65989;HTU21D;53592;51.402;6.054;2023-05-29T10:40:28;26.90;32.15
65989;HTU21D;53592;51.402;6.054;2023-05-29T10:42:54;26.95;32.93
65989;HTU21D;53592;51.402;6.054;2023-05-29T10:50:49;27.28;32.42
65989;HTU21D;53592;51.402;6.054;2023-05-29T10:53:34;27.29;32.60
65989;HTU21D;53592;51.402;6.054;2023-05-29T10:56:00;27.29;32.57
65989;HTU21D;53592;51.402;6.054;2023-05-29T10:58:30;27.39;30.69
65989;HTU21D;53592;51.402;6.054;2023-05-29T11:00:55;27.02;32.07
65989;HTU21D;53592;51.402;6.054;2023-05-29T11:03:31;27.09;30.77
65989;HTU21D;53592;51.402;6.054;2023-05-29T11:06:16;27.04;31.82
65989;HTU21D;53592;51.402;6.054;2023-05-29T11:08:45;26.92;31.82
65989;HTU21D;53592;51.402;6.054;2023-05-29T11:11:12;26.73;31.80
65989;HTU21D;53592;51.402;6.054;2023-05-29T11:13:38;26.64;30.77
65989;HTU21D;53592;51.402;6.054;2023-05-29T11:18:51;25.99;32.72
65989;HTU21D;53592;51.402;6.054;2023-05-29T11:24:23;26.26;33.94
65989;HTU21D;53592;51.402;6.054;2023-05-29T11:26:51;26.41;32.22
65989;HTU21D;53592;51.402;6.054;2023-05-29T11:29:26;26.35;32.83
65989;HTU21D;53592;51.402;6.054;2023-05-29T11:32:02;26.35;33.30
65989;HTU21D;53592;51.402;6.054;2023-05-29T11:34:30;26.43;33.12
65989;HTU21D;53592;51.402;6.054;2023-05-29T11:37:01;26.40;32.80
65989;HTU21D;53592;51.402;6.054;2023-05-29T11:39:27;26.26;33.02
65989;HTU21D;53592;51.402;6.054;2023-05-29T11:41:54;26.45;32.96
65989;HTU21D;53592;51.402;6.054;2023-05-29T11:44:20;26.49;33.23
65989;HTU21D;53592;51.402;6.054;2023-05-29T11:46:46;26.77;32.74
65989;HTU21D;53592;51.402;6.054;2023-05-29T11:49:12;26.86;31.80
65989;HTU21D;53592;51.402;6.054;2023-05-29T11:51:37;26.92;31.94
65989;HTU21D;53592;51.402;6.054;2023-05-29T11:54:03;26.75;32.48
65989;HTU21D;53592;51.402;6.054;2023-05-29T11:56:29;26.68;32.01
65989;HTU21D;53592;51.402;6.054;2023-05-29T11:58:58;26.65;31.96
65989;HTU21D;53592;51.402;6.054;2023-05-29T12:01:26;26.72;32.08
65989;HTU21D;53592;51.402;6.054;2023-05-29T12:03:53;26.58;31.49
65989;HTU21D;53592;51.402;6.054;2023-05-29T12:06:32;26.34;32.48
65989;HTU21D;53592;51.402;6.054;2023-05-29T12:08:59;26.40;32.24
65989;HTU21D;53592;51.402;6.054;2023-05-29T12:11:24;26.49;32.18
65989;HTU21D;53592;51.402;6.054;2023-05-29T12:14:00;26.51;31.60
65989;HTU21D;53592;51.402;6.054;2023-05-29T12:16:32;26.23;31.76
65989;HTU21D;53592;51.402;6.054;2023-05-29T12:18:59;26.03;32.24
65989;HTU21D;53592;51.402;6.054;2023-05-29T12:21:24;25.91;33.41
65989;HTU21D;53592;51.402;6.054;2023-05-29T12:23:52;26.01;32.61
65989;HTU21D;53592;51.402;6.054;2023-05-29T12:26:22;26.09;32.98
65989;HTU21D;53592;51.402;6.054;2023-05-29T12:28:50;25.99;32.56
65989;HTU21D;53592;51.402;6.054;2023-05-29T12:31:27;25.98;32.76
65989;HTU21D;53592;51.402;6.054;2023-05-29T12:33:53;26.06;32.67
65989;HTU21D;53592;51.402;6.054;2023-05-29T12:36:19;26.12;32.55
65989;HTU21D;53592;51.402;6.054;2023-05-29T12:38:49;26.17;32.21
65989;HTU21D;53592;51.402;6.054;2023-05-29T12:43:56;25.91;32.80
65989;HTU21D;53592;51.402;6.054;2023-05-29T12:46:23;25.90;32.35
65989;HTU21D;53592;51.402;6.054;2023-05-29T12:48:48;25.92;33.42
65989;HTU21D;53592;51.402;6.054;2023-05-29T12:51:17;25.97;32.63
65989;HTU21D;53592;51.402;6.054;2023-05-29T12:53:43;25.94;32.55
65989;HTU21D;53592;51.402;6.054;2023-05-29T12:56:08;25.92;32.93
65989;HTU21D;53592;51.402;6.054;2023-05-29T12:58:34;25.91;32.85
65989;HTU21D;53592;51.402;6.054;2023-05-29T13:00:59;25.83;33.26
65989;HTU21D;53592;51.402;6.054;2023-05-29T13:03:25;25.82;32.67
65989;HTU21D;53592;51.402;6.054;2023-05-29T13:05:51;25.75;33.28
65989;HTU21D;53592;51.402;6.054;2023-05-29T13:08:19;25.81;33.56
65989;HTU21D;53592;51.402;6.054;2023-05-29T13:10:45;25.87;33.22
65989;HTU21D;53592;51.402;6.054;2023-05-29T13:13:11;25.84;32.78
65989;HTU21D;53592;51.402;6.054;2023-05-29T13:15:37;25.76;32.35
65989;HTU21D;53592;51.402;6.054;2023-05-29T13:18:03;25.53;32.95
65989;HTU21D;53592;51.402;6.054;2023-05-29T13:20:29;25.45;33.46
65989;HTU21D;53592;51.402;6.054;2023-05-29T13:22:55;25.51;33.63
65989;HTU21D;53592;51.402;6.054;2023-05-29T13:25:21;25.54;33.02
65989;HTU21D;53592;51.402;6.054;2023-05-29T13:27:49;25.39;33.35
65989;HTU21D;53592;51.402;6.054;2023-05-29T13:30:15;25.31;33.84
65989;HTU21D;53592;51.402;6.054;2023-05-29T13:32:41;25.25;33.47
65989;HTU21D;53592;51.402;6.054;2023-05-29T13:35:08;25.06;33.17
65989;HTU21D;53592;51.402;6.054;2023-05-29T13:37:34;24.92;33.78
65989;HTU21D;53592;51.402;6.054;2023-05-29T13:40:01;24.97;33.40
65989;HTU21D;53592;51.402;6.054;2023-05-29T13:42:26;24.88;33.86
65989;HTU21D;53592;51.402;6.054;2023-05-29T13:44:53;24.86;34.43
65989;HTU21D;53592;51.402;6.054;2023-05-29T13:47:18;24.88;34.20
65989;HTU21D;53592;51.402;6.054;2023-05-29T13:49:44;24.78;33.92
65989;HTU21D;53592;51.402;6.054;2023-05-29T13:52:09;24.63;34.60
65989;HTU21D;53592;51.402;6.054;2023-05-29T13:54:35;24.51;34.62
65989;HTU21D;53592;51.402;6.054;2023-05-29T13:57:05;24.38;34.79
65989;HTU21D;53592;51.402;6.054;2023-05-29T13:59:32;24.29;34.96
65989;HTU21D;53592;51.402;6.054;2023-05-29T14:01:58;24.23;34.94
65989;HTU21D;53592;51.402;6.054;2023-05-29T14:04:24;24.13;35.36
65989;HTU21D;53592;51.402;6.054;2023-05-29T14:06:51;24.02;35.08
65989;HTU21D;53592;51.402;6.054;2023-05-29T14:09:16;23.88;36.30
65989;HTU21D;53592;51.402;6.054;2023-05-29T14:11:44;23.94;36.50
65989;HTU21D;53592;51.402;6.054;2023-05-29T14:14:09;24.06;36.88
65989;HTU21D;53592;51.402;6.054;2023-05-29T14:16:35;24.15;35.98
65989;HTU21D;53592;51.402;6.054;2023-05-29T14:19:00;24.16;35.52
65989;HTU21D;53592;51.402;6.054;2023-05-29T14:21:26;24.02;35.67
65989;HTU21D;53592;51.402;6.054;2023-05-29T14:23:51;23.94;35.43
65989;HTU21D;53592;51.402;6.054;2023-05-29T14:26:17;23.94;36.08
65989;HTU21D;53592;51.402;6.054;2023-05-29T14:28:44;23.98;35.80
65989;HTU21D;53592;51.402;6.054;2023-05-29T14:31:09;24.12;35.68
65989;HTU21D;53592;51.402;6.054;2023-05-29T14:33:35;24.21;35.50
65989;HTU21D;53592;51.402;6.054;2023-05-29T14:36:02;24.24;35.66
65989;HTU21D;53592;51.402;6.054;2023-05-29T14:38:28;24.06;34.76
65989;HTU21D;53592;51.402;6.054;2023-05-29T14:40:53;23.87;34.92
65989;HTU21D;53592;51.402;6.054;2023-05-29T14:43:19;23.80;34.99
65989;HTU21D;53592;51.402;6.054;2023-05-29T14:45:44;23.94;34.52
65989;HTU21D;53592;51.402;6.054;2023-05-29T14:48:09;23.89;34.61
65989;HTU21D;53592;51.402;6.054;2023-05-29T14:50:36;23.81;33.92
65989;HTU21D;53592;51.402;6.054;2023-05-29T14:53:02;23.73;34.47
65989;HTU21D;53592;51.402;6.054;2023-05-29T14:55:28;23.75;33.65
65989;HTU21D;53592;51.402;6.054;2023-05-29T14:57:53;23.83;33.63
65989;HTU21D;53592;51.402;6.054;2023-05-29T15:00:19;23.90;34.44
65989;HTU21D;53592;51.402;6.054;2023-05-29T15:02:45;24.01;33.51
65989;HTU21D;53592;51.402;6.054;2023-05-29T15:05:10;24.03;33.09
65989;HTU21D;53592;51.402;6.054;2023-05-29T15:07:36;23.88;32.99
65989;HTU21D;53592;51.402;6.054;2023-05-29T15:10:03;23.75;33.14
65989;HTU21D;53592;51.402;6.054;2023-05-29T15:12:29;23.65;33.38
65989;HTU21D;53592;51.402;6.054;2023-05-29T15:14:54;23.69;33.11
65989;HTU21D;53592;51.402;6.054;2023-05-29T15:17:20;23.54;33.49
65989;HTU21D;53592;51.402;6.054;2023-05-29T15:19:46;23.45;32.99
65989;HTU21D;53592;51.402;6.054;2023-05-29T15:22:11;23.31;33.20
65989;HTU21D;53592;51.402;6.054;2023-05-29T15:24:37;23.29;33.51
65989;HTU21D;53592;51.402;6.054;2023-05-29T15:27:03;23.25;33.18
65989;HTU21D;53592;51.402;6.054;2023-05-29T15:29:35;23.20;33.20
65989;HTU21D;53592;51.402;6.054;2023-05-29T15:32:02;23.11;32.86
65989;HTU21D;53592;51.402;6.054;2023-05-29T15:34:29;23.00;33.78
65989;HTU21D;53592;51.402;6.054;2023-05-29T15:36:54;22.95;33.09
65989;HTU21D;53592;51.402;6.054;2023-05-29T15:39:20;22.90;33.31
65989;HTU21D;53592;51.402;6.054;2023-05-29T15:41:46;22.90;33.17